Time;durP1;ratioP1;P1;durP2;ratioP2;P2;SDS_P1;SDS_P2;PMS_P1;PMS_P2;Temp;Humidity;BMP_temperature;BMP_pressure;BME280_temperature;BME280_humidity;BME280_pressure;Samples;Min_cycle;Max_cycle;Signal;HPM_P1;HPM_P2
2024/01/22 00:00:47;;;;;;;4.00;3.70;;;3.20;44.50;;;;;;20887;6759;116993;-77
2024/01/22 00:03:22;;;;;;;3.47;3.27;;;3.30;44.70;;;;;;20848;6749;118369;-77
2024/01/22 00:05:58;;;;;;;3.53;3.33;;;3.20;45.10;;;;;;20851;6762;117447;-77
2024/01/22 00:08:33;;;;;;;4.37;4.07;;;3.10;45.60;;;;;;20642;6769;278079;-77
2024/01/22 00:11:09;;;;;;;4.23;3.93;;;3.30;44.40;;;;;;20637;6769;301783;-77
2024/01/22 00:13:47;;;;;;;4.13;3.73;;;4.00;42.60;;;;;;20541;6769;311007;-76
2024/01/22 00:16:22;;;;;;;3.63;3.27;;;4.00;42.10;;;;;;20794;6789;117387;-77
2024/01/22 00:18:59;;;;;;;4.03;3.67;;;3.90;42.60;;;;;;20855;6762;117045;-76
2024/01/22 00:21:35;;;;;;;4.37;3.97;;;3.70;43.30;;;;;;20696;6769;307032;-78
2024/01/22 00:24:12;;;;;;;4.20;3.80;;;3.80;42.90;;;;;;20551;6759;279765;-78
2024/01/22 00:26:48;;;;;;;4.17;3.40;;;4.10;42.30;;;;;;20910;6753;118621;-78
2024/01/22 00:29:23;;;;;;;4.00;3.70;;;4.00;42.70;;;;;;20675;6753;335931;-77
2024/01/22 00:32:01;;;;;;;3.80;3.50;;;4.00;42.30;;;;;;20665;6768;306796;-77
2024/01/22 00:34:37;;;;;;;3.13;2.93;;;4.30;41.80;;;;;;20755;6753;117310;-77
2024/01/22 00:37:12;;;;;;;3.10;2.90;;;4.10;42.20;;;;;;20885;6760;116984;-77
2024/01/22 00:39:48;;;;;;;3.80;3.50;;;3.90;43.00;;;;;;20681;6750;336739;-79
2024/01/22 00:42:23;;;;;;;3.62;3.33;;;3.90;42.50;;;;;;20705;6750;306707;-78
2024/01/22 00:44:59;;;;;;;6.43;3.50;;;4.20;42.10;;;;;;20739;6750;119806;-78
2024/01/22 00:47:35;;;;;;;4.00;3.70;;;4.10;42.40;;;;;;20719;6750;310397;-78
2024/01/22 00:50:11;;;;;;;3.67;3.37;;;4.10;42.40;;;;;;20794;6782;117171;-77
2024/01/22 00:52:47;;;;;;;3.10;2.90;;;3.90;42.80;;;;;;20801;6774;117399;-77
2024/01/22 00:55:23;;;;;;;3.13;2.83;;;3.40;44.10;;;;;;20903;6741;117378;-77
2024/01/22 00:57:59;;;;;;;3.50;3.20;;;3.40;44.10;;;;;;20762;6781;117160;-77
2024/01/22 01:00:35;;;;;;;4.00;3.70;;;3.30;44.00;;;;;;20654;6765;279108;-78
2024/01/22 01:03:10;;;;;;;4.22;3.90;;;3.30;44.00;;;;;;20609;6760;339611;-78
2024/01/22 01:05:46;;;;;;;3.60;3.30;;;3.70;43.00;;;;;;20927;6744;117355;-78
2024/01/22 01:08:22;;;;;;;4.40;4.00;;;3.70;43.30;;;;;;20652;6766;336319;-78
2024/01/22 01:10:58;;;;;;;4.33;3.80;;;3.80;42.90;;;;;;20885;6767;117266;-77
2024/01/22 01:13:33;;;;;;;4.40;4.10;;;3.80;42.80;;;;;;20630;6751;338700;-78
2024/01/22 01:16:10;;;;;;;3.80;3.60;;;3.90;42.80;;;;;;20821;6771;119202;-78
2024/01/22 01:18:45;;;;;;;3.73;3.43;;;3.90;42.80;;;;;;20881;6759;119513;-77
2024/01/22 01:21:24;;;;;;;4.93;3.47;;;3.70;43.30;;;;;;20855;6760;116889;-77
2024/01/22 01:23:57;;;;;;;4.60;4.20;;;3.60;43.20;;;;;;20580;6748;307653;-77
2024/01/22 01:26:33;;;;;;;3.97;3.67;;;3.60;43.20;;;;;;20923;6736;116123;-77
2024/01/22 01:29:09;;;;;;;3.93;3.50;;;3.40;44.20;;;;;;20924;6736;117322;-77
2024/01/22 01:31:45;;;;;;;4.47;4.12;;;3.40;44.00;;;;;;20707;6736;305127;-77
2024/01/22 01:34:20;;;;;;;4.45;4.15;;;3.50;43.40;;;;;;20592;6735;279672;-77
2024/01/22 01:36:56;;;;;;;3.93;3.53;;;3.90;42.80;;;;;;20869;6750;117016;-77
2024/01/22 01:39:32;;;;;;;3.83;3.50;;;3.80;43.00;;;;;;20835;6778;116995;-77
2024/01/22 01:42:07;;;;;;;3.73;3.43;;;3.60;43.60;;;;;;20861;6773;116882;-77
2024/01/22 01:44:52;;;;;;;3.60;3.40;;;3.40;44.20;;;;;;20730;6773;117478;-77
2024/01/22 01:47:24;;;;;;;3.00;2.80;;;3.20;44.70;;;;;;20863;6788;117523;-77
2024/01/22 01:50:00;;;;;;;3.20;2.97;;;3.10;45.30;;;;;;20836;6756;117095;-77
2024/01/22 01:52:35;;;;;;;4.10;3.77;;;3.00;45.80;;;;;;20648;6771;308254;-77
2024/01/22 01:55:12;;;;;;;4.07;3.77;;;3.60;44.90;;;;;;20632;6771;279613;-76
2024/01/22 01:57:49;;;;;;;3.90;3.60;;;3.60;44.20;;;;;;20608;6769;308705;-77
2024/01/22 02:00:24;;;;;;;4.20;3.70;;;4.00;43.30;;;;;;20660;6764;279831;-77
2024/01/22 02:03:00;;;;;;;3.27;3.07;;;4.30;42.60;;;;;;20899;6744;117645;-77
2024/01/22 02:05:36;;;;;;;5.40;3.03;;;4.20;43.10;;;;;;20915;6747;116934;-77
2024/01/22 02:08:11;;;;;;;3.53;3.07;;;3.90;43.80;;;;;;20908;6746;119339;-76
2024/01/22 02:10:47;;;;;;;2.90;2.70;;;3.70;44.50;;;;;;20938;6743;119552;-77
2024/01/22 02:13:22;;;;;;;3.03;2.83;;;3.50;45.00;;;;;;20842;6749;117133;-77
2024/01/22 02:15:58;;;;;;;2.93;2.73;;;3.30;45.30;;;;;;20894;6749;120142;-77
2024/01/22 02:18:33;;;;;;;3.60;3.30;;;3.20;45.70;;;;;;20710;6749;335829;-77
2024/01/22 02:21:09;;;;;;;3.45;3.20;;;3.40;45.00;;;;;;20714;6745;335005;-77
2024/01/22 02:23:45;;;;;;;3.83;3.50;;;4.00;43.70;;;;;;20506;6769;310413;-78
2024/01/22 02:30:23;;;;;;;3.27;3.03;;;4.30;43.00;;;;;;21505;6505;71482;-77
2024/01/22 02:32:49;;;;;;;3.12;2.92;;;4.20;43.40;;;;;;20744;6783;304907;-77
2024/01/22 02:35:17;;;;;;;3.03;2.83;;;4.10;43.30;;;;;;20767;6848;118549;-78
2024/01/22 02:37:41;;;;;;;3.37;3.07;;;4.00;43.90;;;;;;20682;6848;117930;-76
2024/01/22 02:40:07;;;;;;;4.25;3.95;;;3.70;44.50;;;;;;20486;6857;302514;-76
2024/01/22 02:42:33;;;;;;;3.43;3.13;;;3.70;44.50;;;;;;20682;6874;117386;-77
2024/01/22 02:44:58;;;;;;;3.83;3.53;;;3.70;44.70;;;;;;20685;6874;117155;-77
2024/01/22 02:47:24;;;;;;;3.90;3.60;;;3.50;45.20;;;;;;20699;6872;117267;-77
2024/01/22 02:49:49;;;;;;;5.10;4.70;;;3.30;45.70;;;;;;20483;6866;279990;-77
2024/01/22 02:52:16;;;;;;;5.53;4.03;;;3.40;46.00;;;;;;20743;6856;120361;-77
2024/01/22 02:54:41;;;;;;;5.30;4.80;;;3.30;45.60;;;;;;20534;6856;278690;-77
2024/01/22 02:57:07;;;;;;;5.80;5.30;;;3.40;45.40;;;;;;20536;6856;308284;-77
2024/01/22 02:59:36;;;;;;;4.50;4.20;;;3.60;45.00;;;;;;20752;6856;117468;-77
2024/01/22 03:02:00;;;;;;;4.67;4.27;;;3.60;45.00;;;;;;20721;6856;120310;-77
2024/01/22 03:04:26;;;;;;;5.20;4.70;;;3.40;45.60;;;;;;20749;6856;117417;-77
2024/01/22 03:06:51;;;;;;;4.90;4.50;;;3.10;46.10;;;;;;20744;6856;117527;-77
2024/01/22 03:09:17;;;;;;;4.82;4.43;;;2.90;46.50;;;;;;20769;6856;120242;-77
2024/01/22 03:11:44;;;;;;;6.15;5.62;;;2.70;46.90;;;;;;20558;6856;310070;-77
2024/01/22 03:14:10;;;;;;;5.20;4.80;;;2.80;46.70;;;;;;20749;6856;117765;-77
2024/01/22 03:16:36;;;;;;;6.03;5.47;;;2.80;46.70;;;;;;20730;6856;118400;-77
2024/01/22 03:19:01;;;;;;;6.57;6.03;;;2.70;47.10;;;;;;20544;6856;280480;-78
2024/01/22 03:21:28;;;;;;;6.25;5.65;;;2.70;47.00;;;;;;20746;6856;119770;-77
2024/01/22 03:23:53;;;;;;;5.50;5.00;;;2.70;47.00;;;;;;20723;6856;147360;-78
2024/01/22 03:26:19;;;;;;;5.90;5.50;;;2.60;47.40;;;;;;20531;6856;278633;-77
2024/01/22 03:28:49;;;;;;;5.93;5.53;;;2.70;47.80;;;;;;20749;6856;118250;-77
2024/01/22 03:31:21;;;;;;;5.47;4.97;;;2.70;47.80;;;;;;20739;6856;117172;-77
2024/01/22 03:33:47;;;;;;;5.53;5.13;;;2.50;48.00;;;;;;20718;6856;117901;-80
2024/01/22 03:36:13;;;;;;;6.00;5.20;;;2.20;48.70;;;;;;20747;6856;117572;-82
2024/01/22 03:38:38;;;;;;;6.67;6.17;;;2.20;48.70;;;;;;20532;6856;298202;-76
2024/01/22 03:41:04;;;;;;;6.97;6.37;;;2.40;48.80;;;;;;20540;6855;278742;-77
2024/01/22 03:43:30;;;;;;;6.00;5.50;;;2.80;48.40;;;;;;20751;6856;117114;-77
2024/01/22 03:45:55;;;;;;;5.10;4.70;;;2.80;48.30;;;;;;20726;6856;117258;-77
2024/01/22 03:48:21;;;;;;;5.73;5.23;;;2.70;48.60;;;;;;20545;6856;337728;-77
2024/01/22 03:50:46;;;;;;;5.20;4.80;;;2.90;48.70;;;;;;20549;6856;338204;-77
2024/01/22 03:53:12;;;;;;;4.93;4.40;;;3.20;48.10;;;;;;20758;6856;117113;-78
2024/01/22 03:55:37;;;;;;;5.37;4.97;;;3.20;48.00;;;;;;20543;6856;308615;-77
2024/01/22 03:58:03;;;;;;;4.28;3.87;;;3.40;47.90;;;;;;20745;6856;119473;-77
2024/01/22 04:00:29;;;;;;;3.67;3.37;;;3.40;48.00;;;;;;20765;6856;118394;-78
2024/01/22 04:02:54;;;;;;;4.40;4.10;;;3.30;48.40;;;;;;20550;6856;310867;-77
2024/01/22 04:05:21;;;;;;;4.00;3.60;;;3.50;48.50;;;;;;20757;6856;116781;-77
2024/01/22 04:07:47;;;;;;;3.33;3.12;;;3.50;48.60;;;;;;20746;6856;117683;-78
2024/01/22 04:10:12;;;;;;;4.57;4.22;;;3.40;48.90;;;;;;20550;6856;309610;-77
2024/01/22 04:12:38;;;;;;;4.13;3.73;;;3.60;48.70;;;;;;20545;6856;307730;-77
2024/01/22 04:15:04;;;;;;;3.20;3.00;;;3.90;48.00;;;;;;20748;6856;117156;-78
2024/01/22 04:17:29;;;;;;;3.80;3.00;;;3.90;48.00;;;;;;20749;6856;117100;-77
2024/01/22 04:19:55;;;;;;;3.77;3.50;;;3.80;48.40;;;;;;20516;6856;308394;-77
2024/01/22 04:22:20;;;;;;;3.90;3.60;;;3.90;48.00;;;;;;20536;6856;279042;-77
2024/01/22 04:24:46;;;;;;;3.87;3.53;;;4.30;47.40;;;;;;20747;6856;117699;-77
2024/01/22 04:27:11;;;;;;;4.07;3.67;;;4.20;47.40;;;;;;20532;6856;338610;-77
2024/01/22 04:29:38;;;;;;;4.50;4.20;;;4.30;47.00;;;;;;20533;6856;338302;-77
2024/01/22 04:32:04;;;;;;;4.65;3.67;;;4.50;46.50;;;;;;20525;6856;307929;-77
2024/01/22 04:34:30;;;;;;;4.00;3.72;;;4.80;46.00;;;;;;20538;6856;308170;-77
2024/01/22 04:36:55;;;;;;;3.40;3.10;;;5.00;45.60;;;;;;20729;6856;117227;-79
2024/01/22 04:39:26;;;;;;;3.73;3.43;;;4.60;46.60;;;;;;20752;6856;119364;-79
2024/01/22 04:41:48;;;;;;;4.87;3.13;;;4.60;46.60;;;;;;20704;6856;119378;-78
2024/01/22 04:44:14;;;;;;;3.70;3.50;;;4.40;47.30;;;;;;20516;6856;311481;-78
2024/01/22 04:46:40;;;;;;;3.40;3.10;;;4.40;46.90;;;;;;20706;6856;121295;-78
2024/01/22 04:49:06;;;;;;;3.20;3.00;;;4.20;47.40;;;;;;20749;6856;117640;-77
2024/01/22 04:51:31;;;;;;;4.07;3.00;;;4.30;47.50;;;;;;20744;6854;117147;-77
2024/01/22 04:53:57;;;;;;;3.47;3.17;;;4.10;47.90;;;;;;20519;6855;308561;-77
2024/01/22 04:56:23;;;;;;;3.00;2.80;;;4.20;47.40;;;;;;20746;6856;117323;-76
2024/01/22 04:58:48;;;;;;;4.55;3.33;;;4.20;47.40;;;;;;20532;6856;339205;-77
2024/01/22 05:01:14;;;;;;;3.53;3.33;;;4.40;47.00;;;;;;20538;6856;309293;-77
2024/01/22 05:03:40;;;;;;;3.80;3.50;;;4.60;46.30;;;;;;20746;6856;117574;-77
2024/01/22 05:06:05;;;;;;;3.50;3.30;;;4.60;46.40;;;;;;20510;6856;287931;-79
2024/01/22 05:08:31;;;;;;;4.10;3.00;;;4.70;46.30;;;;;;20736;6856;117324;-75
2024/01/22 05:10:56;;;;;;;2.87;2.73;;;4.60;46.50;;;;;;20641;6856;119769;-76
2024/01/22 05:13:22;;;;;;;3.90;3.50;;;4.40;47.00;;;;;;20525;6856;340669;-76
2024/01/22 05:15:47;;;;;;;3.50;3.25;;;4.40;46.70;;;;;;20716;6856;118728;-76
2024/01/22 05:18:13;;;;;;;3.23;3.00;;;4.40;46.90;;;;;;20731;6856;117313;-77
2024/01/22 05:20:39;;;;;;;3.22;3.03;;;4.10;47.90;;;;;;20758;6856;117408;-77
2024/01/22 05:23:06;;;;;;;3.60;3.40;;;4.10;47.80;;;;;;20532;6856;308406;-77
2024/01/22 05:25:33;;;;;;;3.87;3.50;;;4.20;47.50;;;;;;20539;6856;308400;-77
2024/01/22 05:27:59;;;;;;;3.87;3.60;;;4.50;47.00;;;;;;20520;6856;308522;-78
2024/01/22 05:30:24;;;;;;;3.72;3.12;;;4.80;46.40;;;;;;20758;6856;117837;-74
2024/01/22 05:32:50;;;;;;;3.10;2.90;;;4.50;47.00;;;;;;20739;6856;117148;-76
2024/01/22 05:35:16;;;;;;;3.30;3.00;;;4.50;47.00;;;;;;20732;6856;117178;-75
2024/01/22 05:37:42;;;;;;;3.53;3.23;;;4.40;47.60;;;;;;20525;6856;278810;-76
2024/01/22 05:40:10;;;;;;;3.33;3.13;;;4.50;47.40;;;;;;20511;6856;308623;-75
2024/01/22 05:42:33;;;;;;;2.73;2.53;;;4.70;46.70;;;;;;20712;6856;117606;-77
2024/01/22 05:45:00;;;;;;;2.40;2.30;;;4.80;46.90;;;;;;20742;6856;120297;-77
2024/01/22 05:47:26;;;;;;;3.35;3.05;;;4.60;47.30;;;;;;20529;6856;309158;-77
2024/01/22 05:49:51;;;;;;;3.10;2.90;;;4.70;47.00;;;;;;20719;6856;117629;-77
2024/01/22 05:52:17;;;;;;;4.10;3.12;;;4.70;47.30;;;;;;20531;6856;279861;-77
2024/01/22 05:54:42;;;;;;;5.03;2.90;;;4.70;46.70;;;;;;20742;6856;117190;-77
2024/01/22 05:57:09;;;;;;;2.90;2.67;;;4.60;47.40;;;;;;20747;6856;117164;-76
2024/01/22 05:59:34;;;;;;;2.60;2.50;;;4.60;47.40;;;;;;20739;6856;117249;-74
2024/01/22 06:02:01;;;;;;;2.92;2.72;;;4.40;47.80;;;;;;20717;6856;127003;-76
2024/01/22 06:04:26;;;;;;;2.57;2.47;;;4.40;48.40;;;;;;20732;6854;117328;-75
2024/01/22 06:06:52;;;;;;;2.90;2.70;;;4.20;48.60;;;;;;20534;6856;279912;-75
2024/01/22 06:09:18;;;;;;;3.33;3.13;;;4.40;48.30;;;;;;20535;6856;280152;-76
2024/01/22 06:11:43;;;;;;;3.70;3.40;;;4.70;47.70;;;;;;20518;6856;308349;-78
2024/01/22 06:14:10;;;;;;;2.72;2.53;;;5.10;47.20;;;;;;20726;6856;118184;-75
2024/01/22 06:16:35;;;;;;;3.43;3.13;;;5.10;47.20;;;;;;20733;6856;120370;-75
2024/01/22 06:19:01;;;;;;;3.63;3.10;;;4.90;47.70;;;;;;20531;6856;281104;-76
2024/01/22 06:21:26;;;;;;;3.13;2.93;;;4.90;47.50;;;;;;20522;6856;309757;-76
2024/01/22 06:23:52;;;;;;;3.37;3.17;;;5.20;47.30;;;;;;20706;6856;118145;-76
2024/01/22 06:26:18;;;;;;;3.28;3.08;;;5.20;47.40;;;;;;20523;6856;308521;-76
2024/01/22 06:28:43;;;;;;;3.70;3.50;;;5.20;47.20;;;;;;20528;6856;326820;-76
2024/01/22 06:31:10;;;;;;;4.30;3.73;;;5.40;47.50;;;;;;20527;6856;318445;-76
2024/01/22 06:33:35;;;;;;;3.40;3.20;;;5.60;46.40;;;;;;20528;6856;290790;-76
2024/01/22 06:36:02;;;;;;;3.10;2.90;;;5.60;46.40;;;;;;20714;6856;119297;-77
2024/01/22 06:38:27;;;;;;;3.40;3.20;;;5.60;46.20;;;;;;20733;6856;117761;-75
2024/01/22 06:40:54;;;;;;;3.67;3.08;;;5.00;47.40;;;;;;20746;6856;116777;-75
2024/01/22 06:43:19;;;;;;;3.07;2.87;;;5.00;47.40;;;;;;20735;6856;117205;-75
2024/01/22 06:45:45;;;;;;;3.75;3.53;;;4.80;48.00;;;;;;20521;6856;280979;-75
2024/01/22 06:48:11;;;;;;;3.70;3.20;;;4.90;47.70;;;;;;20706;6856;117443;-74
2024/01/22 06:50:39;;;;;;;2.97;2.77;;;4.80;48.40;;;;;;20734;6856;117146;-75
2024/01/22 06:53:04;;;;;;;3.43;3.13;;;4.70;48.10;;;;;;20733;6856;117287;-76
2024/01/22 06:55:30;;;;;;;3.77;3.07;;;4.50;49.00;;;;;;20735;6856;117561;-75
2024/01/22 06:57:55;;;;;;;3.10;2.90;;;4.50;49.00;;;;;;20492;6856;281200;-75
2024/01/22 07:00:21;;;;;;;3.70;3.15;;;4.60;48.60;;;;;;20517;6856;308523;-76
2024/01/22 07:02:48;;;;;;;3.40;3.20;;;5.00;47.80;;;;;;20519;6856;278765;-75
2024/01/22 07:05:13;;;;;;;3.40;2.83;;;5.40;48.00;;;;;;20727;6856;119853;-76
2024/01/22 07:07:38;;;;;;;3.30;3.10;;;5.40;47.30;;;;;;20741;6856;118579;-75
2024/01/22 07:10:05;;;;;;;3.60;3.30;;;5.20;47.70;;;;;;20502;6856;309703;-76
2024/01/22 07:12:31;;;;;;;3.20;3.00;;;5.30;47.30;;;;;;20516;6856;310423;-75
2024/01/22 07:14:57;;;;;;;3.05;2.85;;;5.60;46.90;;;;;;20731;6854;117721;-79
2024/01/22 07:17:23;;;;;;;2.40;2.30;;;5.60;47.60;;;;;;20740;6855;118328;-76
2024/01/22 07:19:48;;;;;;;3.00;2.70;;;5.40;47.50;;;;;;20506;6856;311772;-78
2024/01/22 07:22:14;;;;;;;2.40;2.22;;;5.50;47.30;;;;;;20748;6856;118602;-75
2024/01/22 07:24:40;;;;;;;3.23;2.80;;;5.60;47.60;;;;;;20736;6856;117217;-75
2024/01/22 07:27:05;;;;;;;4.30;2.30;;;5.50;48.00;;;;;;20743;6856;117147;-76
2024/01/22 07:29:31;;;;;;;1.87;1.77;;;5.40;48.40;;;;;;20723;6856;119017;-74
2024/01/22 07:31:56;;;;;;;3.07;1.90;;;5.40;48.90;;;;;;20710;6856;119335;-76
2024/01/22 07:34:22;;;;;;;1.83;1.70;;;5.40;49.10;;;;;;20737;6856;120991;-76
2024/01/22 07:36:48;;;;;;;3.30;1.85;;;5.40;49.40;;;;;;20527;6856;310003;-76
2024/01/22 07:39:14;;;;;;;1.80;1.70;;;5.80;48.60;;;;;;20738;6856;119579;-76
2024/01/22 07:41:39;;;;;;;1.53;1.43;;;5.80;48.60;;;;;;20742;6856;120826;-76
2024/01/22 07:44:05;;;;;;;2.37;2.20;;;5.90;49.00;;;;;;20504;6856;309112;-76
2024/01/22 07:46:31;;;;;;;3.60;3.40;;;6.10;48.20;;;;;;20520;6856;310837;-76
2024/01/22 07:48:58;;;;;;;3.05;2.85;;;6.70;47.40;;;;;;20739;6856;117642;-76
2024/01/22 07:51:24;;;;;;;3.20;3.00;;;6.70;47.40;;;;;;20742;6856;117898;-75
2024/01/22 07:53:49;;;;;;;4.82;2.92;;;6.70;47.90;;;;;;20720;6856;121138;-75
2024/01/22 07:56:15;;;;;;;4.90;2.57;;;6.60;48.30;;;;;;20737;6856;117401;-75
2024/01/22 07:58:41;;;;;;;2.40;2.30;;;6.60;48.70;;;;;;20522;6856;328202;-76
2024/01/22 08:01:07;;;;;;;1.90;1.80;;;6.90;47.80;;;;;;20742;6856;117859;-76
2024/01/22 08:03:32;;;;;;;1.97;1.87;;;6.80;47.80;;;;;;20741;6856;117177;-76
2024/01/22 08:05:58;;;;;;;2.23;2.03;;;6.80;48.20;;;;;;20507;6856;310281;-78
2024/01/22 08:08:25;;;;;;;2.00;1.90;;;6.90;47.40;;;;;;20742;6856;117369;-76
2024/01/22 08:10:56;;;;;;;2.83;2.73;;;7.00;47.70;;;;;;20715;6856;122373;-77
2024/01/22 08:13:21;;;;;;;2.17;2.03;;;6.90;48.10;;;;;;20730;6856;117351;-76
2024/01/22 08:15:47;;;;;;;3.30;3.10;;;6.90;48.70;;;;;;20505;6856;309637;-76
2024/01/22 08:18:13;;;;;;;3.00;2.80;;;7.00;48.30;;;;;;20507;6856;297137;-74
2024/01/22 08:20:38;;;;;;;3.10;2.53;;;7.40;47.70;;;;;;20736;6856;117434;-76
2024/01/22 08:23:07;;;;;;;2.17;2.07;;;7.50;47.80;;;;;;20528;6856;307704;-79
2024/01/22 08:25:32;;;;;;;2.70;2.50;;;7.70;47.60;;;;;;20517;6856;279459;-74
2024/01/22 08:28:01;;;;;;;4.73;4.43;;;8.00;47.10;;;;;;20513;6854;309144;-75
2024/01/22 08:30:27;;;;;;;2.00;1.90;;;8.30;47.10;;;;;;20736;6856;118399;-75
2024/01/22 08:32:52;;;;;;;3.30;3.10;;;8.30;47.10;;;;;;20743;6856;119300;-75
2024/01/22 08:35:18;;;;;;;2.40;2.00;;;8.10;47.70;;;;;;20515;6856;278857;-75
2024/01/22 08:37:50;;;;;;;1.93;1.73;;;8.10;47.60;;;;;;20533;6856;280405;-77
2024/01/22 08:40:16;;;;;;;1.40;1.40;;;8.40;47.60;;;;;;20673;6856;118089;-77
2024/01/22 08:42:38;;;;;;;1.70;1.60;;;8.40;47.80;;;;;;20512;6856;310760;-75
2024/01/22 08:45:04;;;;;;;1.70;1.60;;;8.50;47.80;;;;;;20520;6856;309095;-78
2024/01/22 08:47:29;;;;;;;1.67;1.30;;;8.70;47.90;;;;;;20736;6856;120861;-76
2024/01/22 08:49:55;;;;;;;1.50;1.40;;;8.60;48.10;;;;;;20714;6856;117689;-76
2024/01/22 08:52:20;;;;;;;4.87;4.43;;;8.50;48.80;;;;;;20745;6856;117379;-76
2024/01/22 08:54:48;;;;;;;2.10;2.00;;;8.10;50.60;;;;;;20729;6856;117394;-75
2024/01/22 08:57:13;;;;;;;1.70;1.60;;;8.10;50.00;;;;;;20533;6856;279847;-77
2024/01/22 08:59:39;;;;;;;1.70;1.60;;;8.20;50.30;;;;;;20529;6856;318438;-77
2024/01/22 09:02:05;;;;;;;1.30;1.30;;;8.60;50.20;;;;;;20717;6856;118772;-76
2024/01/22 09:04:30;;;;;;;1.47;1.20;;;8.60;50.20;;;;;;20732;6856;117681;-78
2024/01/22 09:06:56;;;;;;;1.20;1.20;;;8.50;50.60;;;;;;20734;6856;117593;-78
2024/01/22 09:09:21;;;;;;;1.43;1.33;;;8.40;50.90;;;;;;20528;6856;338152;-77
2024/01/22 09:11:47;;;;;;;1.30;1.30;;;8.50;51.20;;;;;;20509;6856;307868;-79
2024/01/22 09:14:13;;;;;;;1.20;1.20;;;8.70;50.80;;;;;;20508;6856;309113;-76
2024/01/22 09:16:38;;;;;;;1.07;1.07;;;9.00;50.40;;;;;;20736;6856;117395;-78
2024/01/22 09:19:04;;;;;;;1.00;1.00;;;9.10;50.70;;;;;;20745;6856;117129;-77
2024/01/22 09:21:29;;;;;;;1.13;1.07;;;8.90;51.20;;;;;;20540;6856;290145;-78
2024/01/22 09:23:55;;;;;;;1.17;1.17;;;9.00;51.40;;;;;;20720;6856;117501;-80
2024/01/22 09:26:20;;;;;;;1.00;1.00;;;9.00;51.60;;;;;;20749;6856;117502;-78
2024/01/22 09:28:48;;;;;;;2.40;1.20;;;9.10;52.40;;;;;;20534;6856;340033;-76
2024/01/22 09:31:12;;;;;;;4.67;1.57;;;9.10;52.40;;;;;;20738;6856;117651;-78
2024/01/22 09:33:38;;;;;;;0.82;0.82;;;9.20;52.40;;;;;;20737;6856;117255;-77
2024/01/22 09:36:04;;;;;;;1.45;1.35;;;9.10;52.70;;;;;;20733;6856;118358;-76
2024/01/22 09:38:29;;;;;;;1.20;1.10;;;9.10;53.30;;;;;;20521;6854;338319;-76
2024/01/22 09:40:56;;;;;;;1.10;1.10;;;9.40;53.30;;;;;;20744;6855;118567;-76
2024/01/22 09:43:21;;;;;;;0.93;0.93;;;9.40;53.30;;;;;;20529;6856;309110;-75
2024/01/22 09:45:47;;;;;;;0.80;0.80;;;9.60;53.40;;;;;;20494;6856;308280;-76
2024/01/22 09:48:13;;;;;;;1.27;1.20;;;10.10;52.10;;;;;;20498;6856;308602;-76
2024/01/22 09:50:38;;;;;;;1.43;1.00;;;10.40;51.30;;;;;;20532;6856;308838;-76
2024/01/22 09:53:10;;;;;;;3.47;1.00;;;10.80;50.80;;;;;;20737;6856;120200;-76
2024/01/22 09:55:39;;;;;;;2.50;1.20;;;10.80;51.00;;;;;;20709;6856;117259;-76
2024/01/22 09:58:05;;;;;;;0.80;0.80;;;10.60;51.30;;;;;;20716;6856;119915;-76
2024/01/22 10:00:30;;;;;;;1.70;1.60;;;10.50;51.80;;;;;;20522;6856;278487;-77
2024/01/22 10:02:56;;;;;;;1.60;1.50;;;10.60;51.70;;;;;;20528;6856;336227;-77
2024/01/22 10:05:21;;;;;;;1.40;1.30;;;10.80;51.40;;;;;;20725;6856;118434;-77
2024/01/22 10:07:48;;;;;;;1.70;1.10;;;10.90;51.40;;;;;;20764;6856;117318;-78
2024/01/22 10:10:13;;;;;;;1.30;1.20;;;10.70;51.50;;;;;;20525;6856;308683;-77
2024/01/22 10:12:39;;;;;;;4.07;2.70;;;10.80;51.60;;;;;;20745;6856;118726;-78
2024/01/22 10:15:11;;;;;;;1.20;0.87;;;10.80;51.60;;;;;;20556;6856;117807;-77
2024/01/22 10:17:37;;;;;;;4.17;1.03;;;10.70;51.70;;;;;;20738;6856;121278;-77
2024/01/22 10:20:07;;;;;;;1.20;1.20;;;10.50;52.20;;;;;;20709;6856;119455;-76
2024/01/22 10:22:32;;;;;;;1.10;1.10;;;10.40;52.70;;;;;;20736;6856;117466;-76
2024/01/22 10:24:58;;;;;;;1.10;0.82;;;10.30;53.20;;;;;;20727;6856;117371;-77
2024/01/22 10:27:26;;;;;;;1.95;1.10;;;10.20;53.30;;;;;;20742;6856;117791;-76
2024/01/22 10:29:52;;;;;;;1.00;1.00;;;10.20;53.50;;;;;;20506;6856;309446;-76
2024/01/22 10:32:24;;;;;;;1.20;1.10;;;10.40;53.80;;;;;;20526;6856;307062;-78
2024/01/22 10:34:53;;;;;;;1.00;0.83;;;10.70;53.00;;;;;;20533;6856;303508;-77
2024/01/22 10:37:18;;;;;;;1.00;1.00;;;11.10;52.60;;;;;;20534;6856;307865;-76
2024/01/22 10:39:45;;;;;;;1.10;1.00;;;11.40;52.10;;;;;;20518;6856;309534;-77
2024/01/22 10:42:10;;;;;;;0.70;0.70;;;11.60;52.00;;;;;;20476;6856;308828;-78
2024/01/22 10:44:37;;;;;;;0.67;0.67;;;11.70;51.70;;;;;;20762;6856;116808;-77
2024/01/22 10:47:03;;;;;;;0.60;0.60;;;11.40;52.20;;;;;;20766;6856;73805;-80
2024/01/22 10:49:28;;;;;;;0.80;0.80;;;11.40;52.20;;;;;;20748;6854;118121;-78
2024/01/22 10:51:53;;;;;;;0.60;0.60;;;11.10;52.90;;;;;;20732;6855;117835;-77
2024/01/22 10:54:19;;;;;;;0.63;0.63;;;10.90;53.30;;;;;;20530;6856;291109;-76
2024/01/22 10:56:44;;;;;;;0.80;0.80;;;10.90;54.30;;;;;;20532;6856;307592;-77
2024/01/22 10:59:10;;;;;;;0.50;0.50;;;11.20;54.60;;;;;;20739;6856;116812;-75
2024/01/22 11:01:36;;;;;;;1.40;0.90;;;11.20;54.40;;;;;;20533;6856;308151;-76
2024/01/22 11:04:01;;;;;;;0.50;0.50;;;11.30;54.70;;;;;;20768;6856;127207;-77
2024/01/22 11:06:27;;;;;;;0.40;0.40;;;11.20;54.40;;;;;;20764;6856;118755;-76
2024/01/22 11:08:53;;;;;;;0.93;0.60;;;11.00;54.40;;;;;;20742;6856;116881;-78
2024/01/22 11:11:19;;;;;;;0.73;0.73;;;10.90;54.50;;;;;;20730;6856;119279;-77
2024/01/22 11:13:45;;;;;;;0.63;0.63;;;10.70;55.00;;;;;;20529;6856;279101;-76
2024/01/22 11:16:10;;;;;;;0.93;0.70;;;10.80;56.00;;;;;;20529;6856;310711;-76
2024/01/22 11:18:36;;;;;;;1.10;0.70;;;11.20;56.10;;;;;;20568;6856;310713;-77
2024/01/22 11:21:18;;;;;;;0.80;0.80;;;11.50;55.60;;;;;;20770;6856;117260;-77
2024/01/22 11:24:05;;;;;;;0.77;0.60;;;11.50;55.10;;;;;;20568;6856;331679;-79
2024/01/22 11:26:31;;;;;;;1.93;0.67;;;11.60;55.10;;;;;;20514;6856;116657;-77
2024/01/22 11:29:07;;;;;;;0.70;0.70;;;11.60;55.10;;;;;;20536;6856;308388;-80
2024/01/22 11:31:35;;;;;;;0.67;0.67;;;11.70;55.30;;;;;;20532;6856;308178;-79
2024/01/22 11:33:58;;;;;;;0.73;0.73;;;11.90;54.70;;;;;;20487;6856;308178;-79
2024/01/22 11:36:25;;;;;;;0.75;0.75;;;12.10;54.00;;;;;;20748;6856;118979;-82
2024/01/22 11:38:54;;;;;;;0.60;0.60;;;12.00;53.70;;;;;;20656;6856;117301;-76
2024/01/22 11:41:20;;;;;;;0.73;0.70;;;11.80;54.80;;;;;;20523;6856;337219;-77
2024/01/22 11:43:46;;;;;;;0.57;0.57;;;11.80;54.70;;;;;;20706;6856;121080;-77
2024/01/22 11:46:16;;;;;;;1.10;0.60;;;11.70;54.40;;;;;;20511;6856;308425;-78
2024/01/22 11:48:41;;;;;;;0.95;0.80;;;11.80;55.60;;;;;;20535;6856;313107;-78
2024/01/22 11:51:09;;;;;;;1.10;0.70;;;12.20;55.40;;;;;;20521;6856;278915;-76
2024/01/22 11:53:34;;;;;;;0.60;0.60;;;12.10;55.30;;;;;;20746;6856;117565;-77
2024/01/22 11:56:04;;;;;;;0.50;0.50;;;11.80;55.40;;;;;;20656;6856;132614;-76
2024/01/22 11:58:30;;;;;;;1.13;0.63;;;11.80;55.40;;;;;;20716;6856;117492;-77
2024/01/22 12:00:57;;;;;;;0.70;0.70;;;11.60;56.40;;;;;;20513;6854;279552;-77
2024/01/22 12:03:26;;;;;;;0.70;0.70;;;11.60;56.40;;;;;;20516;6855;308343;-77
2024/01/22 12:06:01;;;;;;;0.47;0.47;;;11.80;55.90;;;;;;20723;6856;119302;-78
2024/01/22 12:08:27;;;;;;;0.80;0.70;;;11.80;55.80;;;;;;20577;6856;118204;-79
2024/01/22 12:10:56;;;;;;;0.60;0.60;;;11.60;56.00;;;;;;20749;6856;117410;-78
2024/01/22 12:13:21;;;;;;;0.77;0.67;;;11.40;56.10;;;;;;20530;6856;308599;-78
2024/01/22 12:15:47;;;;;;;0.80;0.70;;;11.50;56.60;;;;;;20520;6856;299980;-77
2024/01/22 12:18:13;;;;;;;0.80;0.80;;;12.00;56.50;;;;;;20513;6856;278202;-77
2024/01/22 12:20:38;;;;;;;1.07;1.07;;;11.90;55.80;;;;;;20526;6856;310038;-77
2024/01/22 12:23:05;;;;;;;1.33;0.90;;;12.20;56.00;;;;;;20741;6856;120188;-77
2024/01/22 12:25:40;;;;;;;0.60;0.60;;;12.10;55.50;;;;;;20717;6856;122263;-75
2024/01/22 12:28:07;;;;;;;1.20;1.00;;;11.50;56.30;;;;;;20717;6856;120840;-75
2024/01/22 12:30:33;;;;;;;0.93;0.90;;;11.60;56.60;;;;;;20521;6856;307744;-77
2024/01/22 12:32:59;;;;;;;1.10;1.10;;;11.50;56.50;;;;;;20750;6856;119234;-80
2024/01/22 12:35:24;;;;;;;0.80;0.80;;;11.50;56.40;;;;;;20761;6856;117358;-79
2024/01/22 12:37:51;;;;;;;0.52;0.52;;;11.40;56.80;;;;;;20762;6856;118560;-79
2024/01/22 12:40:18;;;;;;;7.70;3.63;;;11.20;57.20;;;;;;20739;6856;119898;-81
2024/01/22 12:42:47;;;;;;;3.03;2.83;;;11.10;58.30;;;;;;20753;6856;120538;-82
2024/01/22 12:45:22;;;;;;;1.70;1.23;;;11.00;58.20;;;;;;20765;6856;116916;-81
2024/01/22 12:47:47;;;;;;;2.60;2.40;;;10.90;58.50;;;;;;20553;6856;316726;-82
2024/01/22 12:50:13;;;;;;;1.50;1.40;;;11.10;58.70;;;;;;20718;6856;120382;-82
2024/01/22 12:52:40;;;;;;;3.83;1.48;;;11.10;58.30;;;;;;20759;6856;117370;-80